Time;durP1;ratioP1;P1;durP2;ratioP2;P2;SDS_P1;SDS_P2;PMS_P1;PMS_P2;Temp;Humidity;BMP_temperature;BMP_pressure;BME280_temperature;BME280_humidity;BME280_pressure;Samples;Min_cycle;Max_cycle;Signal;HPM_P1;HPM_P2
2022/04/07 00:02:15;;;;;;;1.30;0.20;;;;;;;23.58;48.19;98743.66;5032783;28;20056;-67
2022/04/07 00:04:40;;;;;;;0.68;0.22;;;;;;;23.58;47.89;98741.75;5032845;28;20029;-66
2022/04/07 00:07:05;;;;;;;1.10;0.30;;;;;;;23.60;47.79;98736.00;5031252;28;20460;-66
2022/04/07 00:09:30;;;;;;;1.20;0.22;;;;;;;23.65;46.92;98734.13;5032235;28;20034;-66
2022/04/07 00:11:56;;;;;;;2.20;0.80;;;;;;;23.68;46.27;98725.41;5032250;28;20484;-66
2022/04/07 00:14:21;;;;;;;0.85;0.20;;;;;;;23.70;46.58;98726.00;5032247;28;20018;-66
2022/04/07 00:16:46;;;;;;;0.57;0.10;;;;;;;23.70;46.90;98728.72;5032457;28;20067;-67
2022/04/07 00:19:12;;;;;;;1.27;0.20;;;;;;;23.75;46.50;98729.88;5032346;28;20029;-67
2022/04/07 00:21:38;;;;;;;0.82;0.10;;;;;;;23.74;46.14;98725.47;5031920;28;20025;-67
2022/04/07 00:24:05;;;;;;;1.23;0.20;;;;;;;23.75;46.13;98727.13;5032569;28;20446;-66
2022/04/07 00:26:31;;;;;;;0.93;0.40;;;;;;;23.77;45.17;98728.53;5032444;28;20022;-67
2022/04/07 00:28:57;;;;;;;1.10;0.10;;;;;;;23.83;45.42;98726.66;5032544;28;20469;-66
2022/04/07 00:31:22;;;;;;;0.47;0.10;;;;;;;23.85;45.93;98730.81;5067074;23;20146;-64
2022/04/07 00:33:47;;;;;;;1.08;0.30;;;;;;;23.84;45.53;98717.31;5054514;28;20052;-64
2022/04/07 00:36:13;;;;;;;2.97;0.30;;;;;;;23.88;45.05;98715.75;5054442;28;20017;-64
2022/04/07 00:38:38;;;;;;;1.38;0.20;;;;;;;23.85;45.41;98713.50;5054337;28;20070;-64
2022/04/07 00:41:03;;;;;;;1.27;0.20;;;;;;;23.89;44.88;98711.91;5053496;28;20020;-64
2022/04/07 00:43:33;;;;;;;0.45;0.15;;;;;;;23.87;45.13;98703.94;5054044;28;20066;-64
2022/04/07 00:46:00;;;;;;;1.65;0.25;;;;;;;23.91;44.98;98707.00;5054231;28;20107;-65
2022/04/07 00:48:26;;;;;;;1.75;0.20;;;;;;;23.91;44.60;98707.00;5054083;28;20418;-64
2022/04/07 00:50:53;;;;;;;1.15;0.20;;;;;;;23.91;44.25;98704.25;5053403;28;20114;-64
2022/04/07 00:53:19;;;;;;;1.20;0.52;;;;;;;23.95;44.60;98697.16;5053941;28;20108;-64
2022/04/07 00:55:45;;;;;;;1.45;0.10;;;;;;;23.96;45.70;98699.63;5052785;28;20150;-64
2022/04/07 00:58:11;;;;;;;0.82;0.20;;;;;;;23.94;44.93;98685.34;5052702;28;20033;-65
2022/04/07 01:00:36;;;;;;;1.20;0.20;;;;;;;23.96;44.27;98687.81;5055554;28;20025;-62
2022/04/07 01:03:01;;;;;;;0.93;0.22;;;;;;;23.99;44.24;98684.56;5055047;28;20063;-64
2022/04/07 01:05:27;;;;;;;0.75;0.17;;;;;;;23.95;43.95;98687.00;5053625;28;20025;-64
2022/04/07 01:07:52;;;;;;;0.50;0.38;;;;;;;23.98;44.65;98683.72;5053880;28;20025;-64
2022/04/07 01:10:19;;;;;;;2.63;0.30;;;;;;;24.00;44.21;98673.31;5053787;28;20422;-64
2022/04/07 01:12:45;;;;;;;1.35;0.30;;;;;;;24.02;45.12;98664.84;5053749;28;20029;-64
2022/04/07 01:15:10;;;;;;;1.42;0.30;;;;;;;24.03;44.16;98680.22;5053696;28;20021;-64
2022/04/07 01:17:38;;;;;;;0.70;0.15;;;;;;;24.04;44.52;98668.16;5052442;28;20383;-65
2022/04/07 01:20:05;;;;;;;0.68;0.35;;;;;;;24.03;44.26;98669.25;5053706;28;20104;-65
2022/04/07 01:22:31;;;;;;;0.55;0.10;;;;;;;24.00;44.71;98662.34;5052082;28;20020;-65
2022/04/07 01:24:56;;;;;;;0.93;0.28;;;;;;;24.01;45.09;98652.19;5053631;28;20502;-65
2022/04/07 01:27:24;;;;;;;0.65;0.10;;;;;;;24.02;44.78;98659.38;5053185;28;20029;-65
2022/04/07 01:29:51;;;;;;;0.43;0.17;;;;;;;24.06;44.05;98649.50;5053368;28;20163;-64
2022/04/07 01:32:26;;;;;;;0.30;0.10;;;;;;;24.09;44.08;98645.41;5053289;28;20051;-64
2022/04/07 01:34:52;;;;;;;1.13;0.10;;;;;;;24.09;44.24;98638.00;5053454;28;20044;-65
2022/04/07 01:37:18;;;;;;;1.17;0.32;;;;;;;24.05;44.00;98630.56;5051775;28;20017;-64
2022/04/07 01:39:45;;;;;;;1.15;0.30;;;;;;;24.05;44.35;98627.81;5053329;28;20032;-64
2022/04/07 01:42:13;;;;;;;1.65;0.38;;;;;;;24.05;44.41;98608.63;5051900;28;20025;-64
2022/04/07 01:44:44;;;;;;;0.93;0.20;;;;;;;24.08;43.65;98619.88;5054367;28;20037;-64
2022/04/07 01:47:12;;;;;;;0.47;0.20;;;;;;;24.01;44.80;98603.63;5053018;28;20021;-64
2022/04/07 01:49:39;;;;;;;0.63;0.20;;;;;;;24.09;44.62;98605.06;5052920;28;20103;-64
2022/04/07 01:52:05;;;;;;;0.25;0.20;;;;;;;24.11;43.66;98602.06;5053104;28;20051;-65
2022/04/07 01:54:32;;;;;;;0.95;0.17;;;;;;;24.10;44.39;98606.72;5051573;28;20029;-65
2022/04/07 01:56:58;;;;;;;2.38;0.50;;;;;;;24.06;44.60;98604.78;5052866;28;20020;-65
2022/04/07 01:59:25;;;;;;;1.65;0.30;;;;;;;24.12;43.75;98599.06;5052689;28;20379;-65
2022/04/07 02:01:51;;;;;;;2.08;0.10;;;;;;;24.15;44.75;98609.50;5052875;28;20098;-65
2022/04/07 02:04:16;;;;;;;1.60;0.30;;;;;;;24.14;44.62;98607.03;5052949;28;20421;-65
2022/04/07 02:06:41;;;;;;;1.02;0.22;;;;;;;;;;5052740;28;20035;-65
2022/04/07 02:09:07;;;;;;;0.40;0.20;;;;;;;24.13;44.80;98606.19;5052759;28;20033;-65
2022/04/07 02:11:32;;;;;;;1.63;0.30;;;;;;;24.15;44.25;98603.19;5051210;28;20487;-65
2022/04/07 02:13:57;;;;;;;0.75;0.15;;;;;;;24.16;43.53;98599.34;5052915;28;20060;-65
2022/04/07 02:16:23;;;;;;;0.98;0.10;;;;;;;24.11;43.24;98600.16;5052508;28;20523;-65
2022/04/07 02:18:48;;;;;;;1.38;0.13;;;;;;;24.18;44.65;98592.50;5052617;28;20114;-65
2022/04/07 02:21:14;;;;;;;1.13;0.10;;;;;;;24.20;43.70;98587.59;5053946;28;20032;-65
2022/04/07 02:23:42;;;;;;;1.30;0.40;;;;;;;24.18;44.03;98580.69;5052581;28;20063;-65
2022/04/07 02:26:12;;;;;;;2.05;0.10;;;;;;;24.21;44.15;98585.69;5052455;28;20108;-64
2022/04/07 02:28:38;;;;;;;1.40;0.20;;;;;;;24.20;43.98;98573.88;5052405;28;20052;-65
2022/04/07 02:31:03;;;;;;;1.85;0.40;;;;;;;24.17;43.90;98581.78;5052332;28;20144;-65
2022/04/07 02:33:28;;;;;;;0.95;0.20;;;;;;;24.18;44.12;98587.00;5052141;28;20444;-65
2022/04/07 02:35:54;;;;;;;1.42;0.50;;;;;;;24.18;44.05;98584.25;5051243;28;20377;-65
2022/04/07 02:38:19;;;;;;;0.65;0.10;;;;;;;24.23;43.69;98578.84;5050940;28;20025;-65
2022/04/07 02:40:44;;;;;;;0.77;0.20;;;;;;;24.20;43.47;98573.03;5052412;28;20486;-65
2022/04/07 02:43:09;;;;;;;1.75;0.20;;;;;;;24.21;44.12;98575.53;5052312;28;20028;-65
2022/04/07 02:45:35;;;;;;;0.28;0.10;;;;;;;24.18;43.18;98565.06;5052210;28;20021;-65
2022/04/07 02:48:00;;;;;;;1.05;0.10;;;;;;;24.18;43.25;98570.53;5052285;28;20032;-65
2022/04/07 02:50:25;;;;;;;0.30;0.20;;;;;;;24.20;43.70;98573.88;5051034;28;20043;-65
2022/04/07 02:52:51;;;;;;;0.82;0.10;;;;;;;24.18;43.84;98572.47;5052291;28;20464;-65
2022/04/07 02:55:16;;;;;;;0.90;0.35;;;;;;;24.19;43.73;98555.75;5052050;28;20025;-65
2022/04/07 02:57:42;;;;;;;0.52;0.10;;;;;;;24.20;43.61;98554.66;5052150;28;20415;-64
2022/04/07 03:00:07;;;;;;;2.33;0.50;;;;;;;24.21;43.37;98542.59;5053123;28;20025;-65
2022/04/07 03:02:33;;;;;;;0.95;0.20;;;;;;;24.19;43.26;98542.03;5051992;28;20025;-65
2022/04/07 03:04:58;;;;;;;0.47;0.05;;;;;;;24.23;43.49;98537.66;5052193;28;20024;-65
2022/04/07 03:07:23;;;;;;;0.93;0.30;;;;;;;24.18;43.52;98548.59;5051813;28;20406;-65
2022/04/07 03:09:49;;;;;;;0.73;0.45;;;;;;;24.19;43.69;98539.28;5052057;28;20112;-65
2022/04/07 03:12:14;;;;;;;1.40;0.30;;;;;;;24.10;43.39;98505.19;5050870;28;20031;-65
2022/04/07 03:14:40;;;;;;;0.90;0.30;;;;;;;24.20;43.36;98518.97;5054195;28;20020;-65
2022/04/07 03:17:06;;;;;;;2.40;0.35;;;;;;;24.15;43.84;98510.69;5055908;28;20035;-65
2022/04/07 03:19:32;;;;;;;1.42;0.40;;;;;;;24.22;43.32;98513.22;5055653;28;20487;-65
2022/04/07 03:21:57;;;;;;;1.20;0.13;;;;;;;24.21;42.84;98504.16;5055945;28;20025;-65
2022/04/07 03:24:24;;;;;;;1.83;0.30;;;;;;;24.22;43.64;98494.00;5055625;28;20028;-65
2022/04/07 03:26:50;;;;;;;0.65;0.10;;;;;;;24.18;43.73;98499.16;5055699;28;20463;-65
2022/04/07 03:29:16;;;;;;;0.85;0.10;;;;;;;24.18;43.38;98499.16;5055636;28;20087;-65
2022/04/07 03:31:41;;;;;;;0.30;0.10;;;;;;;24.27;43.12;98496.75;5054175;28;20112;-65
2022/04/07 03:34:07;;;;;;;1.90;0.20;;;;;;;24.23;43.40;98485.50;5054345;28;20472;-65
2022/04/07 03:36:32;;;;;;;1.23;0.30;;;;;;;24.25;42.69;98494.28;5054152;28;20044;-65
2022/04/07 03:38:57;;;;;;;0.63;0.10;;;;;;;24.21;43.62;98497.84;5055727;28;20040;-65
2022/04/07 03:41:23;;;;;;;0.80;0.22;;;;;;;24.21;43.18;98498.66;5055440;28;20056;-64
2022/04/07 03:43:48;;;;;;;0.50;0.10;;;;;;;24.20;42.99;98483.28;5055648;28;20017;-65
2022/04/07 03:46:16;;;;;;;0.70;0.10;;;;;;;24.20;43.55;98488.78;5055233;28;20029;-65
2022/04/07 03:48:42;;;;;;;0.20;0.10;;;;;;;24.25;42.90;98490.72;5055321;28;20021;-65
2022/04/07 03:51:07;;;;;;;0.85;0.22;;;;;;;24.24;43.64;98492.63;5055260;28;20428;-65
2022/04/07 03:53:32;;;;;;;0.40;0.20;;;;;;;24.27;43.31;98492.09;5055301;28;20372;-65
2022/04/07 03:55:58;;;;;;;1.52;0.30;;;;;;;24.23;42.93;98491.00;5055339;28;20036;-65
2022/04/07 03:58:25;;;;;;;0.68;0.13;;;;;;;24.24;43.32;98489.06;5054949;28;20025;-65
2022/04/07 04:00:50;;;;;;;0.65;0.20;;;;;;;24.27;42.75;98492.09;5055204;28;20468;-65
2022/04/07 04:03:15;;;;;;;0.98;0.10;;;;;;;24.34;43.07;98488.31;5055160;28;20074;-65
2022/04/07 04:05:40;;;;;;;2.00;0.28;;;;;;;24.53;42.43;98489.53;5055027;28;20074;-65
2022/04/07 04:08:06;;;;;;;0.38;0.10;;;;;;;24.64;41.94;98485.69;5055157;28;20027;-65
2022/04/07 04:10:31;;;;;;;1.08;0.15;;;;;;;24.72;42.10;98487.94;5053621;28;20037;-65
2022/04/07 04:12:56;;;;;;;0.73;0.17;;;;;;;24.74;41.34;98485.75;5055016;28;20021;-65
2022/04/07 04:15:22;;;;;;;1.33;0.20;;;;;;;24.73;40.79;98484.09;5054615;28;20367;-65
2022/04/07 04:17:48;;;;;;;2.17;0.30;;;;;;;24.75;40.77;98479.16;5055891;28;20025;-65
2022/04/07 04:20:13;;;;;;;1.05;0.20;;;;;;;24.82;41.10;98479.72;5054763;28;20074;-65
2022/04/07 04:22:38;;;;;;;1.85;0.20;;;;;;;24.80;40.96;98481.91;5055002;28;20020;-64
2022/04/07 04:25:04;;;;;;;1.65;0.20;;;;;;;24.86;40.79;98477.28;5053514;28;20029;-65
2022/04/07 04:27:30;;;;;;;0.75;0.20;;;;;;;24.84;40.63;98480.28;5052881;28;20063;-64
2022/04/07 04:29:55;;;;;;;1.33;0.10;;;;;;;24.92;40.97;98480.84;5054450;28;20052;-64
2022/04/07 04:32:20;;;;;;;0.73;0.10;;;;;;;24.87;40.91;98474.25;5054377;28;20029;-65
2022/04/07 04:34:46;;;;;;;0.55;0.20;;;;;;;24.90;40.64;98472.88;5053243;28;20032;-64
2022/04/07 04:37:11;;;;;;;1.67;0.20;;;;;;;24.88;40.32;98475.91;5054433;28;20021;-64
2022/04/07 04:39:37;;;;;;;1.45;0.25;;;;;;;24.87;39.34;98478.94;5053321;28;20513;-64
2022/04/07 04:42:04;;;;;;;0.43;0.10;;;;;;;24.94;40.85;98484.16;5054517;28;20036;-64
2022/04/07 04:44:29;;;;;;;1.42;0.20;;;;;;;24.84;38.94;98483.00;5054123;28;20067;-64
2022/04/07 04:46:54;;;;;;;1.05;0.10;;;;;;;24.89;40.28;98488.53;5054274;28;20033;-64
2022/04/07 04:49:20;;;;;;;2.63;0.30;;;;;;;24.86;40.06;98478.09;5053939;28;20094;-64
2022/04/07 04:51:45;;;;;;;0.45;0.13;;;;;;;24.87;39.91;98478.94;5054224;28;20029;-64
2022/04/07 04:54:13;;;;;;;0.20;0.15;;;;;;;24.98;40.16;98477.00;5054104;28;20452;-64
2022/04/07 04:56:38;;;;;;;0.47;0.20;;;;;;;24.85;37.96;98476.44;5058298;28;20017;-65
2022/04/07 04:59:04;;;;;;;1.48;0.10;;;;;;;24.98;40.76;98468.78;5054163;28;20021;-66
2022/04/07 05:01:29;;;;;;;0.88;0.17;;;;;;;24.94;38.73;98467.66;5053848;28;20035;-66
2022/04/07 05:03:54;;;;;;;0.22;0.10;;;;;;;24.87;38.44;98457.78;5054653;28;20109;-65
2022/04/07 05:06:19;;;;;;;1.17;0.10;;;;;;;24.93;39.31;98461.34;5053798;28;20025;-65
2022/04/07 05:08:45;;;;;;;1.27;0.20;;;;;;;24.99;39.80;98453.94;5053934;28;20067;-65
2022/04/07 05:11:10;;;;;;;1.73;0.30;;;;;;;25.01;39.02;98438.00;5053779;28;20037;-66
2022/04/07 05:13:35;;;;;;;1.02;0.20;;;;;;;24.92;38.25;98445.97;5053573;28;20085;-65
2022/04/07 05:16:01;;;;;;;0.90;0.10;;;;;;;24.89;38.36;98436.34;5052602;28;20035;-66
2022/04/07 05:18:26;;;;;;;1.30;0.20;;;;;;;24.95;38.75;98425.34;5053535;28;20025;-66
2022/04/07 05:20:51;;;;;;;0.70;0.20;;;;;;;24.92;39.56;98425.91;5053679;28;20356;-66
2022/04/07 05:23:17;;;;;;;0.35;0.10;;;;;;;24.96;39.86;98418.75;5053405;28;20021;-67
2022/04/07 05:25:42;;;;;;;1.13;0.20;;;;;;;24.89;38.02;98436.34;5053563;28;20032;-66
2022/04/07 05:28:08;;;;;;;1.02;0.20;;;;;;;24.85;37.87;98429.72;5053382;28;20116;-67
2022/04/07 05:30:33;;;;;;;1.15;0.20;;;;;;;24.96;39.14;98416.81;5052045;28;20044;-66
2022/04/07 05:32:58;;;;;;;0.93;0.28;;;;;;;24.78;39.49;98420.91;5053680;28;20491;-66
2022/04/07 05:35:28;;;;;;;0.75;0.25;;;;;;;25.00;38.97;98422.63;5052976;28;20107;-66
2022/04/07 05:38:01;;;;;;;0.70;0.20;;;;;;;24.94;37.29;98421.78;5053418;28;20024;-66
2022/04/07 05:40:27;;;;;;;0.43;0.00;;;;;;;24.87;37.49;98418.47;5051895;28;20036;-66
2022/04/07 05:42:52;;;;;;;0.63;0.10;;;;;;;24.86;37.41;98416.84;5053322;28;20024;-66
2022/04/07 05:45:18;;;;;;;1.45;0.10;;;;;;;24.98;37.58;98413.81;5053339;28;20445;-65
2022/04/07 05:47:43;;;;;;;0.73;0.20;;;;;;;24.97;38.94;98418.47;5053209;28;20029;-65
2022/04/07 05:50:09;;;;;;;0.90;0.10;;;;;;;25.02;37.86;98425.94;5051758;28;20127;-66
2022/04/07 05:52:35;;;;;;;0.20;0.10;;;;;;;25.05;39.48;98431.72;5053084;28;20024;-65
2022/04/07 05:55:00;;;;;;;1.80;0.10;;;;;;;25.08;39.93;98431.19;5053204;28;20031;-65
2022/04/07 05:57:26;;;;;;;2.70;0.10;;;;;;;24.80;38.66;98429.72;5053055;28;20376;-65
2022/04/07 05:59:52;;;;;;;1.00;0.20;;;;;;;24.96;38.29;98422.31;5053046;28;20467;-65
2022/04/07 06:02:17;;;;;;;1.77;0.10;;;;;;;24.88;38.24;98426.44;5054235;28;20056;-66
2022/04/07 06:04:42;;;;;;;1.30;0.10;;;;;;;24.97;38.97;98425.91;5052938;28;20056;-65
2022/04/07 06:07:07;;;;;;;1.08;0.10;;;;;;;25.00;38.48;98422.63;5052808;28;20037;-66
2022/04/07 06:09:34;;;;;;;1.25;0.25;;;;;;;24.93;37.98;98425.63;5052952;28;20516;-65
2022/04/07 06:11:59;;;;;;;0.68;0.17;;;;;;;25.07;40.25;98404.78;5052855;28;20031;-66
2022/04/07 06:14:25;;;;;;;0.22;0.10;;;;;;;24.89;37.99;98411.59;5053103;28;20415;-66
2022/04/07 06:16:50;;;;;;;0.17;0.10;;;;;;;25.00;37.89;98403.38;5052811;28;20017;-66
2022/04/07 06:19:15;;;;;;;0.43;0.25;;;;;;;25.01;37.97;98410.53;5052567;28;20032;-66
2022/04/07 06:21:43;;;;;;;0.22;0.20;;;;;;;25.00;37.76;98411.63;5052653;28;20024;-66
2022/04/07 06:24:08;;;;;;;1.10;0.20;;;;;;;24.94;37.34;98407.22;5052893;28;20036;-65
2022/04/07 06:26:33;;;;;;;0.80;0.30;;;;;;;25.00;38.42;98403.38;5055017;28;20025;-65
2022/04/07 06:28:59;;;;;;;0.28;0.15;;;;;;;24.97;37.53;98395.66;5051341;28;20066;-66
2022/04/07 06:31:24;;;;;;;0.30;0.25;;;;;;;24.99;39.52;98398.97;5051080;28;20041;-65
2022/04/07 06:33:49;;;;;;;0.68;0.10;;;;;;;24.97;38.97;98398.41;5052701;28;20025;-66
2022/04/07 06:36:14;;;;;;;1.35;0.10;;;;;;;25.06;38.26;98394.06;5052620;28;20048;-66
2022/04/07 06:38:40;;;;;;;0.95;0.30;;;;;;;25.08;40.20;98391.88;5051034;28;20371;-66
2022/04/07 06:41:05;;;;;;;0.65;0.10;;;;;;;25.06;38.91;98394.91;5052840;28;20103;-66
2022/04/07 06:43:30;;;;;;;0.82;0.20;;;;;;;25.01;37.40;98396.78;5058965;28;20024;-65
2022/04/07 06:45:56;;;;;;;0.88;0.40;;;;;;;24.98;37.66;98397.31;5056819;28;20029;-66
2022/04/07 06:48:21;;;;;;;1.70;0.82;;;;;;;25.06;37.17;98402.31;5053758;28;20371;-66
2022/04/07 06:50:46;;;;;;;1.20;0.25;;;;;;;24.98;37.34;98402.81;5056720;28;20043;-66
2022/04/07 06:53:12;;;;;;;0.28;0.10;;;;;;;25.14;38.42;98391.59;5056585;28;20029;-66
2022/04/07 06:55:38;;;;;;;0.10;0.10;;;;;;;25.01;37.66;98385.81;5056582;28;20032;-66
2022/04/07 06:58:06;;;;;;;0.93;0.22;;;;;;;25.11;38.75;98385.81;5055185;28;20417;-66
2022/04/07 07:00:33;;;;;;;0.20;0.17;;;;;;;25.09;38.84;98388.03;5056284;28;20021;-65
2022/04/07 07:03:00;;;;;;;0.75;0.22;;;;;;;25.13;37.44;98378.94;5056515;28;20041;-66
2022/04/07 07:05:28;;;;;;;1.25;0.45;;;;;;;25.08;39.76;98373.44;5056015;28;20044;-66
2022/04/07 07:07:54;;;;;;;1.08;0.20;;;;;;;24.97;36.62;98380.00;5056255;28;20028;-65
2022/04/07 07:10:24;;;;;;;0.30;0.03;;;;;;;24.97;38.01;98373.69;5056281;28;20024;-65
2022/04/07 07:12:51;;;;;;;0.80;0.30;;;;;;;24.98;37.05;98369.84;5054875;28;20067;-66
2022/04/07 07:15:16;;;;;;;0.68;0.17;;;;;;;25.12;39.23;98354.47;5055936;28;20025;-66
2022/04/07 07:17:42;;;;;;;1.15;0.38;;;;;;;25.09;38.02;98361.34;5056437;28;20029;-66
2022/04/07 07:20:10;;;;;;;0.40;0.13;;;;;;;25.06;38.03;98367.41;5054811;28;20017;-67
2022/04/07 07:22:36;;;;;;;1.40;0.13;;;;;;;25.05;36.95;98357.50;5056988;28;20376;-66
2022/04/07 07:25:02;;;;;;;0.30;0.03;;;;;;;25.09;39.06;98366.03;5061244;28;20025;-67
2022/04/07 07:27:28;;;;;;;0.63;0.20;;;;;;;24.99;36.91;98355.00;5055618;28;20074;-66
2022/04/07 07:29:53;;;;;;;0.70;0.10;;;;;;;25.01;36.71;98363.81;5056378;28;20136;-66
2022/04/07 07:32:18;;;;;;;1.08;0.17;;;;;;;25.06;38.76;98355.59;5055653;28;20017;-65
2022/04/07 07:34:44;;;;;;;0.50;0.20;;;;;;;25.17;38.89;98351.72;5055781;28;20048;-66
2022/04/07 07:37:09;;;;;;;0.98;0.10;;;;;;;25.06;37.16;98350.09;5055734;28;20017;-65
2022/04/07 07:39:34;;;;;;;1.15;0.15;;;;;;;25.08;37.74;98353.38;5055784;28;20487;-66
2022/04/07 07:42:00;;;;;;;1.25;0.20;;;;;;;25.16;38.54;98350.91;5056143;28;20024;-67
2022/04/07 07:44:25;;;;;;;0.75;0.20;;;;;;;25.03;37.00;98356.97;5055335;28;20029;-66
2022/04/07 07:46:50;;;;;;;1.00;0.30;;;;;;;25.03;37.25;98361.66;5055528;28;20472;-67
2022/04/07 07:49:16;;;;;;;0.55;0.10;;;;;;;25.19;37.74;98357.75;5055299;28;20112;-65
2022/04/07 07:51:42;;;;;;;1.02;0.20;;;;;;;25.07;38.71;98362.72;5056258;28;20029;-66
2022/04/07 07:54:08;;;;;;;0.38;0.15;;;;;;;25.20;38.82;98362.19;5055379;28;20471;-66
2022/04/07 07:56:33;;;;;;;0.77;0.10;;;;;;;25.13;37.52;98359.69;5059443;28;20512;-66
2022/04/07 07:58:58;;;;;;;0.20;0.10;;;;;;;25.11;36.58;98369.31;5054996;28;20029;-65
2022/04/07 08:01:24;;;;;;;0.90;0.20;;;;;;;25.20;36.81;98362.19;5054937;28;20029;-65
2022/04/07 08:03:50;;;;;;;0.75;0.00;;;;;;;25.16;38.42;98356.41;5055571;28;20029;-66
2022/04/07 08:06:15;;;;;;;1.38;0.30;;;;;;;25.08;36.63;98362.47;5055024;28;20039;-65
2022/04/07 08:08:40;;;;;;;0.40;0.30;;;;;;;25.06;36.80;98358.34;5055008;28;20130;-66
2022/04/07 08:11:06;;;;;;;0.63;0.10;;;;;;;25.01;36.86;98364.63;5055137;28;20021;-66
2022/04/07 08:13:31;;;;;;;0.50;0.08;;;;;;;25.11;37.00;98358.31;5054771;28;20086;-66
2022/04/07 08:15:56;;;;;;;1.75;0.10;;;;;;;25.10;36.57;98356.69;5055033;28;20506;-65
2022/04/07 08:18:23;;;;;;;1.23;0.30;;;;;;;25.07;35.87;98352.56;5054751;28;20025;-65
2022/04/07 08:20:48;;;;;;;0.43;0.10;;;;;;;25.12;38.46;98343.47;5055428;28;20024;-66
2022/04/07 08:23:14;;;;;;;0.70;0.10;;;;;;;25.15;37.79;98353.91;5054717;28;20379;-65
2022/04/07 08:25:39;;;;;;;0.82;0.10;;;;;;;25.26;38.47;98339.06;5054658;28;20513;-65
2022/04/07 08:28:04;;;;;;;2.22;0.65;;;;;;;25.06;38.06;98341.84;5058458;28;20009;-64
2022/04/07 08:30:34;;;;;;;1.75;0.20;;;;;;;25.15;38.50;98341.00;5054417;28;20140;-65
2022/04/07 08:33:00;;;;;;;0.85;0.10;;;;;;;25.07;36.52;98341.56;5054802;28;20021;-65
2022/04/07 08:35:25;;;;;;;0.95;0.17;;;;;;;25.11;36.59;98341.84;5054302;28;20036;-65
2022/04/07 08:37:50;;;;;;;0.52;0.10;;;;;;;25.11;36.15;98347.34;5054510;28;20031;-65
2022/04/07 08:40:22;;;;;;;0.80;0.30;;;;;;;25.17;38.83;98346.22;5054446;28;20566;-65
2022/04/07 08:42:47;;;;;;;0.50;0.17;;;;;;;25.17;37.20;98351.72;5054570;28;20052;-65
2022/04/07 08:45:12;;;;;;;0.63;0.20;;;;;;;25.05;36.98;98354.75;5054371;28;20060;-65
2022/04/07 08:47:40;;;;;;;0.85;0.30;;;;;;;25.15;38.83;98348.44;5054334;28;20031;-66
2022/04/07 08:50:06;;;;;;;0.03;0.03;;;;;;;25.21;36.98;98347.34;5055337;28;20095;-65
2022/04/07 08:52:33;;;;;;;0.40;0.10;;;;;;;25.07;37.36;98338.81;5054595;28;20112;-65
2022/04/07 08:54:59;;;;;;;1.63;0.30;;;;;;;25.14;37.77;98353.09;5053114;28;20021;-65
2022/04/07 08:57:26;;;;;;;1.30;0.30;;;;;;;25.12;36.52;98348.97;5053783;28;20025;-65
2022/04/07 08:59:51;;;;;;;1.75;0.10;;;;;;;25.11;38.02;98348.16;5054213;28;20456;-66
2022/04/07 09:02:16;;;;;;;0.17;0.10;;;;;;;25.16;38.42;98339.91;5053905;28;20092;-65
2022/04/07 09:04:41;;;;;;;2.63;0.30;;;;;;;25.21;37.05;98330.84;5056982;28;20052;-65
2022/04/07 09:07:07;;;;;;;1.02;0.20;;;;;;;25.23;36.08;98328.63;5056310;28;20029;-64
2022/04/07 09:09:36;;;;;;;0.22;0.03;;;;;;;25.13;36.81;98328.63;5053865;28;20036;-65
2022/04/07 09:12:02;;;;;;;0.57;0.17;;;;;;;25.07;36.67;98329.75;5051924;28;20029;-65
2022/04/07 09:14:35;;;;;;;0.43;0.20;;;;;;;25.22;36.23;98321.50;5054142;28;20021;-65
2022/04/07 09:17:02;;;;;;;0.87;0.10;;;;;;;25.21;36.63;98330.03;5053925;28;20021;-66
2022/04/07 09:19:30;;;;;;;0.50;0.10;;;;;;;25.09;37.08;98316.56;5052246;28;20274;-66
2022/04/07 09:22:06;;;;;;;1.75;0.40;;;;;;;25.15;36.80;98321.75;5054492;28;20029;-65
2022/04/07 09:24:37;;;;;;;0.60;0.20;;;;;;;25.08;36.70;98331.41;5053487;28;20271;-65
2022/04/07 09:27:08;;;;;;;0.60;0.10;;;;;;;25.07;36.63;98330.56;5053649;28;20495;-66
2022/04/07 09:29:45;;;;;;;0.45;0.20;;;;;;;25.10;37.12;98329.19;5053647;28;20033;-65
2022/04/07 09:32:25;;;;;;;1.75;0.10;;;;;;;25.15;38.17;98326.44;5052462;28;20028;-66
2022/04/07 09:34:54;;;;;;;0.70;0.10;;;;;;;25.09;36.79;98328.38;5053434;28;20033;-66
2022/04/07 09:37:24;;;;;;;0.25;0.00;;;;;;;25.09;37.21;98319.31;5053363;28;20033;-66
2022/04/07 09:40:02;;;;;;;0.57;0.10;;;;;;;25.05;36.99;98320.97;5062836;28;20045;-66
2022/04/07 09:42:29;;;;;;;2.15;0.10;;;;;;;25.13;36.76;98317.66;5053391;28;20036;-65
2022/04/07 09:44:58;;;;;;;1.35;0.10;;;;;;;25.16;37.36;98319.84;5052026;28;20136;-66
2022/04/07 09:47:33;;;;;;;0.55;0.17;;;;;;;25.13;36.32;98309.41;5051780;28;20041;-65
2022/04/07 09:49:58;;;;;;;1.63;0.28;;;;;;;25.12;38.38;98311.31;5052014;28;20119;-65
2022/04/07 09:52:23;;;;;;;0.93;0.30;;;;;;;25.13;36.00;98312.16;5054625;28;20104;-65
2022/04/07 09:54:51;;;;;;;0.80;0.20;;;;;;;25.06;36.20;98306.94;5053137;28;20074;-65
2022/04/07 09:57:19;;;;;;;1.20;0.10;;;;;;;25.22;38.53;98305.00;5052751;28;20021;-66
2022/04/07 09:59:45;;;;;;;0.45;0.10;;;;;;;25.19;37.61;98305.53;5053102;28;20071;-66
2022/04/07 10:02:11;;;;;;;0.93;0.10;;;;;;;25.13;36.44;98301.16;5052910;28;20029;-66
2022/04/07 10:04:37;;;;;;;0.65;0.30;;;;;;;25.04;36.19;98292.66;5051597;28;20402;-66
2022/04/07 10:07:05;;;;;;;0.40;0.13;;;;;;;25.21;35.99;98297.84;5052864;28;20029;-66
2022/04/07 10:09:31;;;;;;;1.48;0.10;;;;;;;25.05;36.55;98298.97;5052755;28;20067;-66
2022/04/07 10:11:59;;;;;;;0.68;0.20;;;;;;;25.11;36.28;98304.19;5051937;28;20472;-65
2022/04/07 10:14:27;;;;;;;1.13;0.10;;;;;;;25.29;38.48;98294.53;5055021;28;20059;-65
2022/04/07 10:16:52;;;;;;;0.73;0.05;;;;;;;25.29;36.70;98349.53;5053373;28;20021;-66
2022/04/07 10:19:38;;;;;;;0.28;0.10;;;;;;;25.12;37.07;98299.50;5051618;28;20021;-64
2022/04/07 10:22:26;;;;;;;0.10;0.10;;;;;;;25.10;36.80;98296.22;5053322;28;20021;-64
2022/04/07 10:25:01;;;;;;;1.13;0.28;;;;;;;25.19;36.42;98297.28;5051493;28;20063;-64
2022/04/07 10:27:29;;;;;;;0.98;0.10;;;;;;;25.26;36.66;98352.00;5052181;28;20025;-64
2022/04/07 10:30:04;;;;;;;1.17;0.20;;;;;;;25.11;37.42;98348.16;5052773;28;20395;-64
2022/04/07 10:32:42;;;;;;;1.70;0.20;;;;;;;25.18;35.96;98331.38;5052391;28;20463;-64
2022/04/07 10:35:10;;;;;;;0.88;0.10;;;;;;;25.18;38.48;98325.88;5051414;28;20033;-64
2022/04/07 10:37:43;;;;;;;1.10;0.10;;;;;;;25.17;36.86;98321.47;5052407;28;20035;-64
2022/04/07 10:40:37;;;;;;;1.70;0.32;;;;;;;25.25;36.83;98356.69;5052719;28;20054;-65
2022/04/07 10:43:14;;;;;;;1.17;0.20;;;;;;;25.03;40.30;98356.16;5052620;28;20044;-64
2022/04/07 10:45:44;;;;;;;1.92;0.60;;;;;;;24.44;42.32;98349.16;5054519;28;20036;-64
2022/04/07 10:48:30;;;;;;;2.35;0.50;;;;;;;24.27;44.89;98348.53;5052322;28;20021;-65
2022/04/07 10:51:00;;;;;;;1.30;0.30;;;;;;;24.15;42.66;98342.44;5052494;28;20033;-64
2022/04/07 10:53:26;;;;;;;1.67;0.28;;;;;;;23.99;41.59;98363.50;5057437;28;20017;-65
2022/04/07 10:55:57;;;;;;;1.40;0.30;;;;;;;23.89;41.02;98345.09;5053563;28;20128;-65
2022/04/07 10:58:55;;;;;;;0.40;0.20;;;;;;;23.82;41.03;98340.94;5050154;28;20075;-65
2022/04/07 11:01:26;;;;;;;0.85;0.30;;;;;;;23.78;40.41;98348.88;5049480;28;20115;-65
2022/04/07 11:04:20;;;;;;;0.95;0.30;;;;;;;23.67;39.59;98360.88;5049887;28;20025;-65
2022/04/07 11:09:53;;;;;;;1.88;0.30;;;;;;;23.71;40.11;98356.53;5048756;28;20036;-65
2022/04/07 11:12:22;;;;;;;1.80;0.50;;;;;;;23.72;40.21;98351.88;5047117;28;20021;-65
2022/04/07 11:14:49;;;;;;;0.57;0.10;;;;;;;23.66;40.08;98340.03;5048074;28;20043;-66
2022/04/07 11:17:36;;;;;;;0.60;0.13;;;;;;;23.62;40.11;98337.00;5046334;28;20017;-65
2022/04/07 11:20:23;;;;;;;0.80;0.20;;;;;;;23.59;39.96;98321.06;5049532;28;20536;-65
2022/04/07 11:23:05;;;;;;;1.83;0.30;;;;;;;23.54;39.53;98321.03;5049486;28;20528;-66
2022/04/07 11:25:31;;;;;;;0.55;0.10;;;;;;;23.57;40.26;98311.47;5054111;28;20040;-65
2022/04/07 11:28:14;;;;;;;1.13;0.32;;;;;;;23.64;40.11;98307.38;5051393;28;20487;-66
2022/04/07 11:30:40;;;;;;;0.30;0.10;;;;;;;23.66;40.01;98309.84;5049109;28;20392;-65
2022/04/07 11:33:26;;;;;;;0.50;0.20;;;;;;;23.70;40.93;98311.00;5046631;28;20036;-66
2022/04/07 11:36:00;;;;;;;0.75;0.20;;;;;;;23.76;40.89;98314.56;5053201;28;20078;-67
2022/04/07 11:38:34;;;;;;;1.23;0.30;;;;;;;23.75;41.21;98318.41;5049842;28;20357;-66